createdAt,value
2018-06-09T00:00:53.712Z,68.90
2018-06-09T00:03:27.588Z,68.70
2018-06-09T00:05:58.855Z,68.60
2018-06-09T00:08:31.411Z,68.70
2018-06-09T00:11:04.088Z,68.60
2018-06-09T00:13:50.400Z,68.50
2018-06-09T00:16:19.002Z,68.60
2018-06-09T00:18:47.528Z,68.90
2018-06-09T00:21:16.183Z,68.60
2018-06-09T00:23:45.735Z,68.60
2018-06-09T00:26:15.454Z,68.40
2018-06-09T00:28:44.045Z,68.40
2018-06-09T00:31:13.086Z,68.40
2018-06-09T00:33:42.280Z,68.50
2018-06-09T00:36:10.926Z,68.60
2018-06-09T00:41:35.388Z,68.50
2018-06-09T00:44:03.945Z,68.70
2018-06-09T00:46:32.461Z,68.70
2018-06-09T00:49:01.147Z,69.00
2018-06-09T00:51:29.656Z,68.80
2018-06-09T00:53:59.273Z,68.80
2018-06-09T00:56:39.254Z,68.90
2018-06-09T00:59:07.804Z,69.00
2018-06-09T01:01:36.313Z,69.20
2018-06-09T01:04:04.886Z,69.10
2018-06-09T01:06:33.491Z,69.00
2018-06-09T01:09:02.806Z,68.90
2018-06-09T01:11:31.322Z,68.90
2018-06-09T01:14:00.091Z,68.80
2018-06-09T01:16:28.568Z,68.90
2018-06-09T01:18:57.063Z,68.90
2018-06-09T01:21:25.584Z,68.90
2018-06-09T01:23:54.113Z,69.10
2018-06-09T01:26:22.662Z,69.10
2018-06-09T01:28:51.148Z,69.00
2018-06-09T01:33:48.077Z,69.20
2018-06-09T01:36:17.066Z,69.10
2018-06-09T01:38:46.039Z,69.20
2018-06-09T01:41:14.638Z,69.10
2018-06-09T01:43:43.869Z,69.10
2018-06-09T01:46:12.802Z,68.90
2018-06-09T01:48:41.900Z,69.00
2018-06-09T01:53:40.442Z,69.00
2018-06-09T01:56:09.028Z,69.00
2018-06-09T01:58:39.034Z,69.00
2018-06-09T02:01:07.535Z,68.80
2018-06-09T02:03:36.012Z,68.90
2018-06-09T02:06:04.617Z,68.80
2018-06-09T02:08:36.012Z,68.80
2018-06-09T02:11:11.284Z,68.90
2018-06-09T02:13:41.048Z,68.70
2018-06-09T02:16:09.643Z,68.70
2018-06-09T02:18:38.396Z,68.70
2018-06-09T02:21:07.017Z,68.50
2018-06-09T02:23:35.532Z,68.30
2018-06-09T02:26:04.105Z,68.30
2018-06-09T02:28:32.620Z,68.10
2018-06-09T02:31:01.209Z,67.90
2018-06-09T02:33:29.733Z,67.90
2018-06-09T02:36:07.760Z,67.90
2018-06-09T02:38:44.516Z,67.90
2018-06-09T02:41:14.704Z,67.90
2018-06-09T02:43:45.297Z,68.10
2018-06-09T02:46:14.674Z,67.80
2018-06-09T02:48:45.699Z,67.80
2018-06-09T02:51:17.525Z,68.10
2018-06-09T02:53:49.059Z,68.10
2018-06-09T02:56:20.101Z,68.20
2018-06-09T02:58:51.586Z,68.20
2018-06-09T03:01:21.882Z,68.30
2018-06-09T03:03:52.031Z,68.30
2018-06-09T03:06:20.682Z,68.50
2018-06-09T03:08:52.670Z,68.70
2018-06-09T03:11:21.838Z,68.50
2018-06-09T03:13:50.516Z,68.70
2018-06-09T03:16:20.064Z,68.80
2018-06-09T03:18:49.970Z,68.80
2018-06-09T03:21:19.602Z,68.70
2018-06-09T03:23:53.400Z,68.90
2018-06-09T03:26:37.307Z,68.90
2018-06-09T03:29:07.195Z,68.90
2018-06-09T03:31:36.893Z,69.10
2018-06-09T03:34:12.407Z,69.10
2018-06-09T03:36:46.823Z,68.90
2018-06-09T03:39:18.244Z,68.90
2018-06-09T03:41:48.885Z,69.00
2018-06-09T03:44:20.914Z,69.00
2018-06-09T03:46:52.110Z,68.90
2018-06-09T03:49:23.864Z,68.80
2018-06-09T03:51:53.971Z,68.90
2018-06-09T03:54:23.330Z,68.90
2018-06-09T03:56:52.148Z,68.80
2018-06-09T03:59:20.598Z,68.80
2018-06-09T04:01:49.755Z,68.90
2018-06-09T04:04:19.466Z,69.10
2018-06-09T04:06:49.507Z,69.20
2018-06-09T04:09:18.336Z,69.10
2018-06-09T04:11:48.636Z,69.00
2018-06-09T04:14:19.359Z,68.80
2018-06-09T04:19:44.733Z,68.90
2018-06-09T04:22:16.241Z,68.80
2018-06-09T04:24:45.301Z,69.00
2018-06-09T04:27:13.949Z,68.90
2018-06-09T04:29:54.136Z,69.00
2018-06-09T04:32:24.711Z,69.10
2018-06-09T04:34:53.783Z,69.00
2018-06-09T04:37:23.258Z,69.10
2018-06-09T04:39:54.256Z,69.00
2018-06-09T04:42:35.721Z,69.00
2018-06-09T04:45:11.163Z,69.00
2018-06-09T04:47:40.986Z,68.90
2018-06-09T04:50:13.217Z,68.70
2018-06-09T04:52:46.034Z,68.70
2018-06-09T04:55:16.615Z,68.70
2018-06-09T04:57:47.282Z,69.00
2018-06-09T05:00:17.160Z,69.00
2018-06-09T05:02:45.827Z,69.30
2018-06-09T05:05:23.358Z,69.30
2018-06-09T05:07:53.093Z,69.40
2018-06-09T05:10:23.856Z,69.30
2018-06-09T05:12:54.254Z,69.70
2018-06-09T05:15:23.353Z,69.90
2018-06-09T05:17:53.506Z,69.80
2018-06-09T05:20:25.830Z,70.00
2018-06-09T05:22:55.520Z,70.10
2018-06-09T05:25:24.098Z,70.30
2018-06-09T05:27:53.581Z,70.40
2018-06-09T05:30:22.769Z,70.70
2018-06-09T05:32:55.842Z,70.90
2018-06-09T05:35:26.893Z,71.20
2018-06-09T05:37:57.826Z,71.30
2018-06-09T05:40:26.794Z,71.50
2018-06-09T05:42:55.340Z,71.50
2018-06-09T05:45:25.870Z,71.70
2018-06-09T05:47:55.636Z,71.50
2018-06-09T05:50:25.744Z,71.40
2018-06-09T05:52:54.285Z,71.60
2018-06-09T05:55:24.379Z,71.60
2018-06-09T05:57:54.115Z,71.00
2018-06-09T06:00:22.672Z,71.50
2018-06-09T06:02:53.697Z,71.50
2018-06-09T06:05:24.416Z,71.60
2018-06-09T06:10:23.288Z,71.10
2018-06-09T06:12:53.767Z,71.30
2018-06-09T06:15:23.213Z,71.10
2018-06-09T06:17:51.690Z,70.90
2018-06-09T06:20:20.926Z,71.00
2018-06-09T06:22:49.604Z,70.80
2018-06-09T06:25:20.102Z,70.90
2018-06-09T06:27:50.297Z,70.70
2018-06-09T06:30:18.861Z,70.90
2018-06-09T06:32:49.705Z,70.30
2018-06-09T06:35:18.270Z,70.00
2018-06-09T06:37:47.587Z,69.80
2018-06-09T06:40:17.642Z,69.40
2018-06-09T06:42:51.622Z,69.20
2018-06-09T06:45:20.286Z,69.10
2018-06-09T06:47:52.213Z,69.10
2018-06-09T06:50:21.947Z,69.10
2018-06-09T06:52:53.277Z,69.10
2018-06-09T06:55:24.869Z,69.40
2018-06-09T06:57:54.965Z,69.50
2018-06-09T07:00:27.532Z,69.40
2018-06-09T07:02:56.661Z,68.80
2018-06-09T07:05:25.266Z,69.10
2018-06-09T07:07:53.763Z,68.50
2018-06-09T07:10:22.320Z,68.30
2018-06-09T07:12:50.851Z,68.50
2018-06-09T07:15:19.371Z,68.70
2018-06-09T07:17:47.894Z,68.30
2018-06-09T07:20:16.933Z,67.90
2018-06-09T07:22:45.946Z,67.70
2018-06-09T07:25:14.521Z,68.10
2018-06-09T07:27:47.464Z,68.80
2018-06-09T07:30:16.647Z,69.10
2018-06-09T07:32:45.834Z,68.90
2018-06-09T07:35:16.815Z,68.40
2018-06-09T07:37:46.404Z,68.80
2018-06-09T07:40:15.785Z,69.40
2018-06-09T07:42:46.669Z,67.50
2018-06-09T07:45:16.771Z,68.70
2018-06-09T07:47:45.654Z,67.60
2018-06-09T07:50:16.639Z,65.80
2018-06-09T07:52:51.486Z,65.90
2018-06-09T07:55:23.439Z,66.00
2018-06-09T07:57:52.238Z,65.30
2018-06-09T08:00:21.484Z,64.70
2018-06-09T08:02:51.692Z,64.60
2018-06-09T08:05:20.329Z,63.50
2018-06-09T08:07:48.952Z,62.90
2018-06-09T08:10:19.200Z,62.50
2018-06-09T08:12:48.549Z,61.20
2018-06-09T08:15:17.932Z,60.80
2018-06-09T08:17:58.798Z,60.40
2018-06-09T08:20:27.735Z,61.60
2018-06-09T08:22:58.898Z,60.40
2018-06-09T08:25:38.190Z,60.40
2018-06-09T08:28:10.380Z,61.10
2018-06-09T08:30:41.327Z,58.50
2018-06-09T08:33:12.016Z,59.30
2018-06-09T08:35:43.319Z,59.70
2018-06-09T08:38:14.925Z,58.90
2018-06-09T08:40:51.452Z,58.90
2018-06-09T08:43:26.342Z,58.90
2018-06-09T08:45:55.458Z,57.40
2018-06-09T08:48:27.462Z,58.70
2018-06-09T08:50:57.940Z,58.40
2018-06-09T08:53:26.758Z,58.50
2018-06-09T08:58:26.633Z,57.50
2018-06-09T09:00:55.655Z,58.40
2018-06-09T09:03:24.217Z,58.50
2018-06-09T09:05:53.564Z,58.10
2018-06-09T09:08:24.294Z,58.20
2018-06-09T09:10:58.415Z,57.50
2018-06-09T09:15:55.947Z,57.10
2018-06-09T09:18:25.321Z,56.80
2018-06-09T09:20:55.425Z,56.30
2018-06-09T09:23:24.104Z,56.90
2018-06-09T09:25:53.631Z,56.90
2018-06-09T09:28:27.818Z,56.30
2018-06-09T09:31:04.287Z,55.70
2018-06-09T09:33:35.888Z,55.30
2018-06-09T09:36:06.972Z,54.80
2018-06-09T09:38:39.969Z,55.00
2018-06-09T09:41:10.190Z,54.80
2018-06-09T09:51:39.622Z,55.10
2018-06-09T09:54:11.814Z,55.40
2018-06-09T09:56:49.815Z,54.80
2018-06-09T09:59:26.297Z,54.50
2018-06-09T10:01:56.729Z,53.20
2018-06-09T10:04:25.413Z,53.10
2018-06-09T10:06:54.177Z,52.70
2018-06-09T10:09:24.164Z,53.40
2018-06-09T10:11:53.771Z,53.20
2018-06-09T10:14:26.065Z,51.70
2018-06-09T10:17:40.756Z,51.50
2018-06-09T10:20:12.464Z,51.70
2018-06-09T10:22:52.329Z,51.40
2018-06-09T10:25:21.587Z,51.30
2018-06-09T10:27:51.005Z,51.20
2018-06-09T10:30:20.549Z,50.50
2018-06-09T10:32:50.309Z,51.70
2018-06-09T10:35:20.203Z,50.00
2018-06-09T10:37:48.738Z,49.70
2018-06-09T10:40:19.905Z,51.00
2018-06-09T10:42:48.536Z,49.90
2018-06-09T10:45:17.939Z,50.60
2018-06-09T10:47:49.284Z,49.90
2018-06-09T10:52:55.615Z,50.60
2018-06-09T10:55:24.785Z,51.50
2018-06-09T10:57:53.868Z,50.70
2018-06-09T11:00:23.108Z,49.80
2018-06-09T11:02:53.506Z,50.60
2018-06-09T11:05:23.086Z,51.20
2018-06-09T11:07:54.516Z,50.80
2018-06-09T11:10:24.008Z,51.10
2018-06-09T11:12:56.056Z,50.80
2018-06-09T11:15:26.498Z,50.10
2018-06-09T11:17:57.939Z,50.80
2018-06-09T11:20:28.739Z,49.00
2018-06-09T11:22:58.132Z,47.30
2018-06-09T11:25:26.699Z,47.40
2018-06-09T11:28:01.831Z,46.00
2018-06-09T11:30:33.553Z,46.80
2018-06-09T11:33:07.566Z,46.40
2018-06-09T11:35:45.876Z,45.80
2018-06-09T11:45:45.415Z,47.40
2018-06-09T11:48:14.081Z,47.80
2018-06-09T11:50:47.096Z,46.60
2018-06-09T11:53:21.235Z,47.20
2018-06-09T11:55:57.082Z,47.20
2018-06-09T11:58:25.633Z,45.90
2018-06-09T12:00:57.729Z,46.70
2018-06-09T12:03:26.407Z,46.30
2018-06-09T12:05:56.432Z,45.90
2018-06-09T12:08:41.166Z,46.60
2018-06-09T12:11:12.444Z,45.90
2018-06-09T12:13:45.129Z,46.20
2018-06-09T12:16:13.779Z,45.50
2018-06-09T12:18:42.516Z,45.80
2018-06-09T12:21:14.037Z,44.90
2018-06-09T12:23:42.596Z,43.60
2018-06-09T12:26:14.809Z,45.00
2018-06-09T12:28:50.677Z,45.30
2018-06-09T12:31:20.694Z,45.50
2018-06-09T12:33:50.861Z,44.80
2018-06-09T12:36:20.676Z,44.40
2018-06-09T12:38:50.282Z,44.00
2018-06-09T12:41:20.510Z,44.60
2018-06-09T12:43:51.658Z,44.70
2018-06-09T12:46:28.421Z,43.80
2018-06-09T12:48:57.675Z,43.40
2018-06-09T12:51:27.511Z,43.40
2018-06-09T12:53:57.818Z,42.90
2018-06-09T12:56:26.287Z,43.50
2018-06-09T12:58:55.627Z,44.00
2018-06-09T13:01:26.201Z,42.50
2018-06-09T13:03:55.216Z,42.00
2018-06-09T13:06:25.548Z,41.30
2018-06-09T13:08:55.318Z,40.10
2018-06-09T13:11:28.412Z,39.90
2018-06-09T13:13:57.008Z,39.90
2018-06-09T13:18:53.800Z,43.10
2018-06-09T13:21:24.315Z,43.10
2018-06-09T13:26:39.583Z,42.50
2018-06-09T13:29:08.196Z,42.40
2018-06-09T13:31:39.624Z,42.40
2018-06-09T13:34:09.580Z,42.20
2018-06-09T13:36:40.641Z,41.60
2018-06-09T13:39:10.162Z,41.80
2018-06-09T13:41:39.166Z,42.40
2018-06-09T13:44:09.041Z,41.70
2018-06-09T13:46:38.268Z,42.30
2018-06-09T13:49:08.260Z,41.80
2018-06-09T13:51:47.253Z,41.50
2018-06-09T13:54:36.613Z,40.60
2018-06-09T13:57:12.736Z,40.80
2018-06-09T13:59:42.852Z,41.60
2018-06-09T14:02:13.809Z,42.50
2018-06-09T14:04:47.100Z,42.20
2018-06-09T14:07:19.332Z,42.90
2018-06-09T14:09:49.072Z,43.10
2018-06-09T14:12:19.768Z,43.00
2018-06-09T14:14:48.525Z,43.20
2018-06-09T14:17:17.179Z,44.10
2018-06-09T14:19:46.915Z,44.00
2018-06-09T14:22:17.742Z,44.00
2018-06-09T14:24:57.403Z,44.10
2018-06-09T14:27:28.203Z,43.90
2018-06-09T14:29:57.744Z,43.70
2018-06-09T14:32:26.302Z,44.10
2018-06-09T14:34:54.923Z,44.60
2018-06-09T14:37:23.762Z,44.10
2018-06-09T14:39:53.127Z,45.10
2018-06-09T14:42:22.054Z,45.60
2018-06-09T14:44:56.957Z,45.20
2018-06-09T14:47:25.925Z,44.80
2018-06-09T14:49:57.808Z,46.00
2018-06-09T14:52:30.547Z,46.20
2018-06-09T14:55:06.785Z,45.80
2018-06-09T14:57:41.205Z,45.60
2018-06-09T15:00:28.831Z,45.90
2018-06-09T15:02:58.537Z,45.70
2018-06-09T15:05:27.040Z,45.80
2018-06-09T15:07:55.985Z,46.10
2018-06-09T15:10:24.604Z,45.60
2018-06-09T15:12:53.917Z,45.70
2018-06-09T15:15:22.999Z,45.30
2018-06-09T15:17:51.570Z,45.70
2018-06-09T15:20:20.388Z,45.70
2018-06-09T15:22:49.602Z,46.00
2018-06-09T15:25:18.944Z,46.50
2018-06-09T15:27:47.592Z,47.30
2018-06-09T15:30:17.071Z,46.70
2018-06-09T15:32:46.871Z,47.00
2018-06-09T15:35:15.487Z,46.80
2018-06-09T15:37:49.085Z,47.40
2018-06-09T15:40:18.270Z,47.70
2018-06-09T15:42:47.777Z,47.60
2018-06-09T15:45:19.221Z,47.80
2018-06-09T15:50:48.573Z,48.40
2018-06-09T15:53:17.236Z,48.80
2018-06-09T15:55:46.615Z,48.50
2018-06-09T15:58:15.555Z,48.40
2018-06-09T16:00:44.135Z,48.70
2018-06-09T16:03:12.840Z,48.90
2018-06-09T16:08:10.895Z,48.90
2018-06-09T16:10:40.920Z,48.90
2018-06-09T16:13:09.712Z,48.90
2018-06-09T16:15:39.790Z,48.90
2018-06-09T16:18:09.234Z,49.20
2018-06-09T16:23:08.647Z,49.80
2018-06-09T16:25:50.243Z,49.90
2018-06-09T16:28:18.993Z,49.50
2018-06-09T16:30:48.652Z,50.00
2018-06-09T16:33:17.544Z,50.00
2018-06-09T16:35:46.694Z,50.20
2018-06-09T16:38:16.566Z,50.00
2018-06-09T16:40:54.467Z,50.40
2018-06-09T16:43:25.115Z,50.60
2018-06-09T16:45:53.759Z,50.00
2018-06-09T16:48:22.413Z,50.40
2018-06-09T16:50:51.239Z,50.50
2018-06-09T16:53:22.034Z,50.70
2018-06-09T16:55:50.788Z,50.30
2018-06-09T16:58:19.236Z,50.50
2018-06-09T17:00:48.383Z,50.60
2018-06-09T17:03:19.200Z,49.50
2018-06-09T17:05:47.860Z,49.10
2018-06-09T17:08:16.338Z,49.20
2018-06-09T17:10:45.621Z,49.20
2018-06-09T17:13:14.153Z,48.70
2018-06-09T17:15:43.973Z,48.70
2018-06-09T17:18:14.664Z,48.70
2018-06-09T17:20:43.213Z,49.40
2018-06-09T17:23:11.998Z,48.80
2018-06-09T17:25:42.189Z,49.20
2018-06-09T17:28:13.609Z,49.20
2018-06-09T17:30:47.342Z,49.00
2018-06-09T17:33:16.280Z,49.40
2018-06-09T17:35:44.840Z,49.80
2018-06-09T17:38:19.072Z,49.00
2018-06-09T17:40:48.229Z,49.40
2018-06-09T17:43:16.971Z,49.70
2018-06-09T17:45:47.253Z,49.80
2018-06-09T17:48:16.187Z,49.90
2018-06-09T17:50:45.164Z,49.80
2018-06-09T17:56:09.918Z,49.90
2018-06-09T17:58:38.886Z,50.40
2018-06-09T18:01:07.440Z,50.60
2018-06-09T18:03:36.066Z,50.60
2018-06-09T18:06:04.664Z,50.70
2018-06-09T18:08:33.494Z,50.60
2018-06-09T18:11:03.007Z,50.80
2018-06-09T18:13:31.786Z,50.50
2018-06-09T18:16:01.064Z,50.80
2018-06-09T18:18:30.433Z,50.90
2018-06-09T18:21:00.693Z,50.90
2018-06-09T18:23:29.932Z,50.80
2018-06-09T18:25:58.909Z,51.10
2018-06-09T18:28:29.046Z,51.40
2018-06-09T18:30:57.755Z,51.60
2018-06-09T18:35:55.316Z,51.60
2018-06-09T18:38:23.876Z,51.70
2018-06-09T18:40:52.979Z,51.70
2018-06-09T18:43:21.516Z,52.00
2018-06-09T18:45:49.989Z,51.90
2018-06-09T18:48:18.568Z,52.10
2018-06-09T18:50:47.147Z,52.20
2018-06-09T18:53:15.728Z,52.50
2018-06-09T18:55:44.447Z,52.60
2018-06-09T18:58:13.434Z,52.60
2018-06-09T19:00:41.956Z,53.20
2018-06-09T19:03:10.666Z,52.90
2018-06-09T19:05:40.416Z,52.90
2018-06-09T19:08:08.925Z,53.00
2018-06-09T19:10:37.613Z,53.00
2018-06-09T19:13:06.151Z,53.10
2018-06-09T19:18:30.997Z,53.90
2018-06-09T19:20:59.726Z,53.80
2018-06-09T19:23:28.415Z,53.40
2018-06-09T19:25:56.953Z,53.10
2018-06-09T19:28:25.538Z,52.80
2018-06-09T19:30:54.550Z,52.40
2018-06-09T19:33:23.083Z,52.40
2018-06-09T19:35:51.594Z,52.10
2018-06-09T19:38:20.102Z,52.20
2018-06-09T19:40:48.641Z,51.80
2018-06-09T19:43:17.122Z,51.00
2018-06-09T19:45:45.656Z,50.90
2018-06-09T19:48:14.153Z,50.90
2018-06-09T19:50:42.616Z,51.10
2018-06-09T19:53:11.131Z,50.80
2018-06-09T19:55:39.968Z,50.40
2018-06-09T19:58:08.485Z,50.10
2018-06-09T20:00:37.096Z,50.10
2018-06-09T20:03:05.666Z,48.80
2018-06-09T20:05:34.175Z,48.60
2018-06-09T20:08:02.896Z,48.90
2018-06-09T20:10:31.636Z,49.20
2018-06-09T20:13:00.231Z,49.50
2018-06-09T20:15:40.210Z,49.70
2018-06-09T20:18:11.424Z,50.70
2018-06-09T20:20:43.429Z,51.80
2018-06-09T20:23:13.995Z,52.70
2018-06-09T20:25:42.660Z,53.90
2018-06-09T20:28:13.704Z,53.20
2018-06-09T20:30:42.394Z,53.40
2018-06-09T20:33:12.051Z,53.60
2018-06-09T20:35:41.764Z,53.80
2018-06-09T20:38:11.782Z,54.10
2018-06-09T20:40:43.167Z,54.70
2018-06-09T20:43:11.892Z,55.00
2018-06-09T20:45:41.673Z,55.50
2018-06-09T20:50:41.369Z,56.70
2018-06-09T20:53:11.640Z,56.80
2018-06-09T20:55:43.403Z,57.20
2018-06-09T20:58:14.033Z,57.60
2018-06-09T21:00:45.643Z,57.20
2018-06-09T21:03:15.486Z,56.70
2018-06-09T21:05:46.804Z,56.60
2018-06-09T21:08:15.788Z,56.60
2018-06-09T21:10:45.910Z,56.30
2018-06-09T21:13:16.154Z,56.70
2018-06-09T21:15:51.698Z,56.90
2018-06-09T21:18:24.539Z,57.10
2018-06-09T21:23:25.271Z,57.30
2018-06-09T21:25:55.135Z,57.30
2018-06-09T21:28:26.374Z,57.80
2018-06-09T21:32:05.469Z,58.20
2018-06-09T21:34:52.143Z,58.60
2018-06-09T21:37:27.733Z,58.70
2018-06-09T21:40:06.501Z,59.20
2018-06-09T21:42:44.630Z,59.30
2018-06-09T21:45:18.543Z,59.70
2018-06-09T21:47:48.392Z,59.90
2018-06-09T21:50:19.385Z,60.10
2018-06-09T21:52:48.803Z,59.60
2018-06-09T21:55:18.373Z,60.10
2018-06-09T21:57:47.311Z,59.80
2018-06-09T22:00:17.298Z,60.00
2018-06-09T22:02:46.060Z,60.60
2018-06-09T22:05:17.597Z,60.60
2018-06-09T22:07:48.670Z,61.00
2018-06-09T22:10:18.343Z,60.50
2018-06-09T22:12:47.759Z,61.00
2018-06-09T22:15:17.326Z,60.70
2018-06-09T22:17:46.053Z,60.90
2018-06-09T22:20:15.592Z,60.90
2018-06-09T22:22:45.093Z,61.60
2018-06-09T22:25:19.626Z,61.60
2018-06-09T22:27:49.654Z,62.70
2018-06-09T22:30:19.061Z,61.80
2018-06-09T22:32:47.638Z,61.90
2018-06-09T22:35:16.971Z,62.10
2018-06-09T22:37:46.494Z,61.20
2018-06-09T22:40:19.069Z,60.80
2018-06-09T22:42:50.592Z,61.40
2018-06-09T22:45:21.925Z,60.90
2018-06-09T22:47:51.385Z,61.20
2018-06-09T22:50:21.088Z,61.30
2018-06-09T22:52:51.029Z,61.10
2018-06-09T22:55:19.663Z,61.60
2018-06-09T22:57:48.279Z,62.50
2018-06-09T23:00:27.100Z,62.60
2018-06-09T23:02:55.903Z,62.80
2018-06-09T23:05:26.796Z,62.90
2018-06-09T23:07:56.613Z,63.10
2018-06-09T23:10:26.243Z,62.80
2018-06-09T23:13:10.771Z,62.80
2018-06-09T23:22:35.423Z,63.00
2018-06-09T23:25:08.894Z,62.70
2018-06-09T23:27:40.389Z,63.30
2018-06-09T23:30:28.700Z,64.30
2018-06-09T23:32:59.559Z,63.30
2018-06-09T23:35:28.804Z,63.10
2018-06-09T23:38:03.054Z,63.30
2018-06-09T23:40:33.391Z,63.20
2018-06-09T23:43:10.616Z,63.50
2018-06-09T23:45:41.611Z,63.30
2018-06-09T23:48:13.203Z,63.40
2018-06-09T23:53:14.114Z,63.80
2018-06-09T23:55:43.866Z,64.00
2018-06-09T23:58:15.025Z,64.40
